Terminal Aerodrome Forecast
Issued by NWS

Home | Current Version | Previous Version | Text Only | Print | Product List | Glossary Off
Versions: 1 2 3 4 5 6 7 8 9 10 11 12 13 14

732
FTUS43 KICT 240540
TAFHUT
TAF
KHUT 240540Z 2406/2506 32017G26KT P6SM OVC013
     FM241400 32017G22KT P6SM BKN022
     FM241700 32022G26KT P6SM BKN035=

USA.gov is the U.S. government's official web portal to all federal, state and local government web resources and services.